sensor_id;sensor_type;location;lat;lon;timestamp;P1;durP1;ratioP1;P2;durP2;ratioP2
39776;SDS011;25453;48.162;14.510;2022-09-20T00:00:27;0.90;;;0.50;;
39776;SDS011;25453;48.162;14.510;2022-09-20T00:03:00;0.60;;;0.50;;
39776;SDS011;25453;48.162;14.510;2022-09-20T00:05:28;0.77;;;0.50;;
39776;SDS011;25453;48.162;14.510;2022-09-20T00:08:06;2.35;;;0.65;;
39776;SDS011;25453;48.162;14.510;2022-09-20T00:10:37;1.00;;;0.60;;
39776;SDS011;25453;48.162;14.510;2022-09-20T00:13:19;0.52;;;0.40;;
39776;SDS011;25453;48.162;14.510;2022-09-20T00:15:52;1.00;;;0.45;;
39776;SDS011;25453;48.162;14.510;2022-09-20T00:18:20;1.95;;;0.50;;
39776;SDS011;25453;48.162;14.510;2022-09-20T00:20:54;0.95;;;0.50;;
39776;SDS011;25453;48.162;14.510;2022-09-20T00:23:22;1.77;;;0.60;;
39776;SDS011;25453;48.162;14.510;2022-09-20T00:26:00;0.85;;;0.50;;
39776;SDS011;25453;48.162;14.510;2022-09-20T00:28:30;1.70;;;0.80;;
39776;SDS011;25453;48.162;14.510;2022-09-20T00:31:06;1.23;;;0.60;;
39776;SDS011;25453;48.162;14.510;2022-09-20T00:33:34;1.25;;;0.75;;
39776;SDS011;25453;48.162;14.510;2022-09-20T00:36:26;1.20;;;0.70;;
39776;SDS011;25453;48.162;14.510;2022-09-20T00:38:55;1.10;;;0.68;;
39776;SDS011;25453;48.162;14.510;2022-09-20T00:41:30;1.80;;;1.00;;
39776;SDS011;25453;48.162;14.510;2022-09-20T00:47:19;1.33;;;0.63;;
39776;SDS011;25453;48.162;14.510;2022-09-20T00:52:44;1.10;;;0.60;;
39776;SDS011;25453;48.162;14.510;2022-09-20T00:55:17;1.45;;;0.70;;
39776;SDS011;25453;48.162;14.510;2022-09-20T00:57:52;1.17;;;0.60;;
39776;SDS011;25453;48.162;14.510;2022-09-20T01:00:21;1.95;;;0.80;;
39776;SDS011;25453;48.162;14.510;2022-09-20T01:02:57;1.55;;;0.70;;
39776;SDS011;25453;48.162;14.510;2022-09-20T01:05:29;1.23;;;0.50;;
39776;SDS011;25453;48.162;14.510;2022-09-20T01:08:03;1.35;;;0.65;;
39776;SDS011;25453;48.162;14.510;2022-09-20T01:13:06;1.00;;;0.60;;
39776;SDS011;25453;48.162;14.510;2022-09-20T01:15:42;1.77;;;1.00;;
39776;SDS011;25453;48.162;14.510;2022-09-20T01:18:25;1.53;;;0.87;;
39776;SDS011;25453;48.162;14.510;2022-09-20T01:20:55;1.63;;;0.70;;
39776;SDS011;25453;48.162;14.510;2022-09-20T01:31:55;1.55;;;0.77;;
39776;SDS011;25453;48.162;14.510;2022-09-20T01:34:37;1.80;;;0.60;;
39776;SDS011;25453;48.162;14.510;2022-09-20T01:42:38;0.98;;;0.60;;
39776;SDS011;25453;48.162;14.510;2022-09-20T01:45:28;2.42;;;0.70;;
39776;SDS011;25453;48.162;14.510;2022-09-20T02:00:14;1.63;;;0.60;;
39776;SDS011;25453;48.162;14.510;2022-09-20T02:02:58;2.70;;;0.50;;
39776;SDS011;25453;48.162;14.510;2022-09-20T02:20:56;0.57;;;0.50;;
39776;SDS011;25453;48.162;14.510;2022-09-20T02:26:27;1.15;;;0.60;;
39776;SDS011;25453;48.162;14.510;2022-09-20T02:32:11;2.08;;;0.77;;
39776;SDS011;25453;48.162;14.510;2022-09-20T02:40:59;1.90;;;0.50;;
39776;SDS011;25453;48.162;14.510;2022-09-20T02:43:57;0.82;;;0.45;;
39776;SDS011;25453;48.162;14.510;2022-09-20T02:46:50;0.98;;;0.50;;
39776;SDS011;25453;48.162;14.510;2022-09-20T02:49:58;1.48;;;0.88;;
39776;SDS011;25453;48.162;14.510;2022-09-20T03:04:42;2.35;;;0.70;;
39776;SDS011;25453;48.162;14.510;2022-09-20T03:07:40;2.88;;;0.93;;
39776;SDS011;25453;48.162;14.510;2022-09-20T03:10:30;2.45;;;0.60;;
39776;SDS011;25453;48.162;14.510;2022-09-20T03:17:21;2.60;;;0.85;;
39776;SDS011;25453;48.162;14.510;2022-09-20T03:46:29;1.63;;;0.60;;
39776;SDS011;25453;48.162;14.510;2022-09-20T04:00:20;1.13;;;0.60;;
39776;SDS011;25453;48.162;14.510;2022-09-20T04:03:01;3.15;;;0.68;;
39776;SDS011;25453;48.162;14.510;2022-09-20T04:21:13;1.40;;;0.68;;
39776;SDS011;25453;48.162;14.510;2022-09-20T04:26:48;0.80;;;0.43;;
39776;SDS011;25453;48.162;14.510;2022-09-20T04:29:32;1.17;;;0.60;;
39776;SDS011;25453;48.162;14.510;2022-09-20T04:32:18;2.45;;;0.63;;
39776;SDS011;25453;48.162;14.510;2022-09-20T04:34:57;1.08;;;0.75;;
39776;SDS011;25453;48.162;14.510;2022-09-20T04:38:02;1.40;;;0.68;;
39776;SDS011;25453;48.162;14.510;2022-09-20T04:43:41;0.88;;;0.60;;
39776;SDS011;25453;48.162;14.510;2022-09-20T04:55:48;2.65;;;0.95;;
39776;SDS011;25453;48.162;14.510;2022-09-20T05:01:29;1.60;;;0.68;;
39776;SDS011;25453;48.162;14.510;2022-09-20T05:13:37;1.23;;;0.70;;
39776;SDS011;25453;48.162;14.510;2022-09-20T05:16:21;2.50;;;0.90;;
39776;SDS011;25453;48.162;14.510;2022-09-20T05:19:04;1.10;;;0.77;;
39776;SDS011;25453;48.162;14.510;2022-09-20T05:27:32;3.40;;;0.85;;
39776;SDS011;25453;48.162;14.510;2022-09-20T05:38:49;0.75;;;0.50;;
39776;SDS011;25453;48.162;14.510;2022-09-20T06:04:21;0.52;;;0.30;;
39776;SDS011;25453;48.162;14.510;2022-09-20T06:07:20;1.48;;;0.50;;
39776;SDS011;25453;48.162;14.510;2022-09-20T06:13:36;0.93;;;0.52;;
39776;SDS011;25453;48.162;14.510;2022-09-20T06:19:35;1.48;;;0.50;;
39776;SDS011;25453;48.162;14.510;2022-09-20T06:27:44;2.92;;;0.77;;
39776;SDS011;25453;48.162;14.510;2022-09-20T06:30:28;1.50;;;0.70;;
39776;SDS011;25453;48.162;14.510;2022-09-20T06:35:53;3.40;;;0.90;;
39776;SDS011;25453;48.162;14.510;2022-09-20T06:41:56;1.52;;;0.50;;
39776;SDS011;25453;48.162;14.510;2022-09-20T06:44:31;0.73;;;0.60;;
39776;SDS011;25453;48.162;14.510;2022-09-20T06:46:59;1.65;;;0.63;;
39776;SDS011;25453;48.162;14.510;2022-09-20T06:49:33;1.75;;;0.77;;
39776;SDS011;25453;48.162;14.510;2022-09-20T06:52:09;2.42;;;0.93;;
39776;SDS011;25453;48.162;14.510;2022-09-20T06:54:52;1.95;;;0.98;;
39776;SDS011;25453;48.162;14.510;2022-09-20T06:57:32;1.63;;;0.70;;
39776;SDS011;25453;48.162;14.510;2022-09-20T07:00:11;1.02;;;0.70;;
39776;SDS011;25453;48.162;14.510;2022-09-20T07:02:41;1.65;;;0.65;;
39776;SDS011;25453;48.162;14.510;2022-09-20T07:05:17;3.42;;;0.88;;
39776;SDS011;25453;48.162;14.510;2022-09-20T07:07:47;4.43;;;0.93;;
39776;SDS011;25453;48.162;14.510;2022-09-20T07:10:21;1.90;;;0.70;;
39776;SDS011;25453;48.162;14.510;2022-09-20T07:12:59;2.93;;;1.03;;
39776;SDS011;25453;48.162;14.510;2022-09-20T07:15:41;3.42;;;0.80;;
39776;SDS011;25453;48.162;14.510;2022-09-20T07:18:14;2.95;;;0.98;;
39776;SDS011;25453;48.162;14.510;2022-09-20T07:20:41;2.08;;;1.05;;
39776;SDS011;25453;48.162;14.510;2022-09-20T07:23:16;2.15;;;0.93;;
39776;SDS011;25453;48.162;14.510;2022-09-20T07:25:52;2.40;;;0.88;;
39776;SDS011;25453;48.162;14.510;2022-09-20T07:28:19;1.40;;;0.98;;
39776;SDS011;25453;48.162;14.510;2022-09-20T07:30:53;2.92;;;1.30;;
39776;SDS011;25453;48.162;14.510;2022-09-20T07:33:20;2.08;;;0.98;;
39776;SDS011;25453;48.162;14.510;2022-09-20T07:35:57;2.05;;;0.90;;
39776;SDS011;25453;48.162;14.510;2022-09-20T07:38:24;1.67;;;0.80;;
39776;SDS011;25453;48.162;14.510;2022-09-20T07:40:59;4.28;;;1.17;;
39776;SDS011;25453;48.162;14.510;2022-09-20T07:43:28;1.52;;;0.95;;
39776;SDS011;25453;48.162;14.510;2022-09-20T07:46:04;2.58;;;0.90;;
39776;SDS011;25453;48.162;14.510;2022-09-20T07:48:33;2.28;;;1.13;;
39776;SDS011;25453;48.162;14.510;2022-09-20T07:51:09;2.63;;;1.13;;
39776;SDS011;25453;48.162;14.510;2022-09-20T07:53:38;4.70;;;0.90;;
39776;SDS011;25453;48.162;14.510;2022-09-20T07:56:13;1.88;;;0.88;;
39776;SDS011;25453;48.162;14.510;2022-09-20T07:58:44;2.80;;;0.90;;
39776;SDS011;25453;48.162;14.510;2022-09-20T08:01:19;0.77;;;0.70;;
39776;SDS011;25453;48.162;14.510;2022-09-20T08:03:48;2.17;;;1.05;;
39776;SDS011;25453;48.162;14.510;2022-09-20T08:06:23;1.90;;;1.00;;
39776;SDS011;25453;48.162;14.510;2022-09-20T08:08:58;1.98;;;1.10;;
39776;SDS011;25453;48.162;14.510;2022-09-20T08:11:37;2.22;;;1.23;;
39776;SDS011;25453;48.162;14.510;2022-09-20T08:14:05;3.30;;;0.77;;
39776;SDS011;25453;48.162;14.510;2022-09-20T08:16:55;4.53;;;1.40;;
39776;SDS011;25453;48.162;14.510;2022-09-20T08:19:25;2.20;;;1.20;;
39776;SDS011;25453;48.162;14.510;2022-09-20T08:21:59;3.15;;;1.15;;
39776;SDS011;25453;48.162;14.510;2022-09-20T08:24:27;1.85;;;0.93;;
39776;SDS011;25453;48.162;14.510;2022-09-20T08:27:01;1.52;;;0.82;;
39776;SDS011;25453;48.162;14.510;2022-09-20T08:29:36;1.70;;;0.60;;
39776;SDS011;25453;48.162;14.510;2022-09-20T08:32:10;1.23;;;0.70;;
39776;SDS011;25453;48.162;14.510;2022-09-20T08:34:38;1.85;;;0.65;;
39776;SDS011;25453;48.162;14.510;2022-09-20T08:37:14;2.90;;;0.50;;
39776;SDS011;25453;48.162;14.510;2022-09-20T08:39:41;0.40;;;0.40;;
39776;SDS011;25453;48.162;14.510;2022-09-20T08:45:01;1.60;;;0.43;;
39776;SDS011;25453;48.162;14.510;2022-09-20T08:47:52;0.52;;;0.22;;
39776;SDS011;25453;48.162;14.510;2022-09-20T08:50:24;0.63;;;0.35;;
39776;SDS011;25453;48.162;14.510;2022-09-20T08:52:59;1.52;;;0.50;;
39776;SDS011;25453;48.162;14.510;2022-09-20T08:55:37;0.65;;;0.40;;
39776;SDS011;25453;48.162;14.510;2022-09-20T08:58:24;0.38;;;0.28;;
39776;SDS011;25453;48.162;14.510;2022-09-20T09:01:13;0.20;;;0.20;;
39776;SDS011;25453;48.162;14.510;2022-09-20T09:03:57;1.05;;;0.60;;
39776;SDS011;25453;48.162;14.510;2022-09-20T09:06:31;0.60;;;0.30;;
39776;SDS011;25453;48.162;14.510;2022-09-20T09:09:05;0.83;;;0.33;;
39776;SDS011;25453;48.162;14.510;2022-09-20T09:11:33;0.30;;;0.30;;
39776;SDS011;25453;48.162;14.510;2022-09-20T09:14:15;0.60;;;0.47;;
39776;SDS011;25453;48.162;14.510;2022-09-20T09:17:26;0.38;;;0.30;;
39776;SDS011;25453;48.162;14.510;2022-09-20T09:22:56;0.50;;;0.40;;
39776;SDS011;25453;48.162;14.510;2022-09-20T09:25:27;0.57;;;0.40;;
39776;SDS011;25453;48.162;14.510;2022-09-20T09:30:40;0.98;;;0.45;;
39776;SDS011;25453;48.162;14.510;2022-09-20T09:33:25;0.30;;;0.30;;
39776;SDS011;25453;48.162;14.510;2022-09-20T09:38:37;1.25;;;0.47;;
39776;SDS011;25453;48.162;14.510;2022-09-20T09:44:03;0.70;;;0.60;;
39776;SDS011;25453;48.162;14.510;2022-09-20T09:46:43;1.52;;;0.73;;
39776;SDS011;25453;48.162;14.510;2022-09-20T09:49:15;1.17;;;0.60;;
39776;SDS011;25453;48.162;14.510;2022-09-20T09:52:11;0.77;;;0.60;;
39776;SDS011;25453;48.162;14.510;2022-09-20T09:54:45;1.58;;;0.60;;
39776;SDS011;25453;48.162;14.510;2022-09-20T10:00:39;1.25;;;0.60;;
39776;SDS011;25453;48.162;14.510;2022-09-20T10:03:23;1.20;;;0.38;;
39776;SDS011;25453;48.162;14.510;2022-09-20T10:08:58;0.95;;;0.55;;
39776;SDS011;25453;48.162;14.510;2022-09-20T11:00:24;0.95;;;0.60;;
39776;SDS011;25453;48.162;14.510;2022-09-20T11:06:23;0.63;;;0.50;;
39776;SDS011;25453;48.162;14.510;2022-09-20T11:09:15;0.47;;;0.40;;
39776;SDS011;25453;48.162;14.510;2022-09-20T11:15:17;0.32;;;0.30;;
39776;SDS011;25453;48.162;14.510;2022-09-20T11:18:08;0.22;;;0.22;;
39776;SDS011;25453;48.162;14.510;2022-09-20T11:20:58;0.52;;;0.30;;
39776;SDS011;25453;48.162;14.510;2022-09-20T11:23:48;0.30;;;0.30;;
39776;SDS011;25453;48.162;14.510;2022-09-20T11:26:29;0.22;;;0.22;;
39776;SDS011;25453;48.162;14.510;2022-09-20T11:32:48;1.08;;;0.40;;
39776;SDS011;25453;48.162;14.510;2022-09-20T11:34:55;0.50;;;0.38;;
39776;SDS011;25453;48.162;14.510;2022-09-20T11:38:37;1.02;;;0.40;;
39776;SDS011;25453;48.162;14.510;2022-09-20T11:40:58;0.47;;;0.30;;
39776;SDS011;25453;48.162;14.510;2022-09-20T11:43:35;0.63;;;0.32;;
39776;SDS011;25453;48.162;14.510;2022-09-20T11:46:27;0.63;;;0.38;;
39776;SDS011;25453;48.162;14.510;2022-09-20T11:49:08;0.38;;;0.30;;
39776;SDS011;25453;48.162;14.510;2022-09-20T11:57:57;0.70;;;0.30;;
39776;SDS011;25453;48.162;14.510;2022-09-20T12:00:37;0.85;;;0.20;;
39776;SDS011;25453;48.162;14.510;2022-09-20T12:05:55;0.73;;;0.30;;
39776;SDS011;25453;48.162;14.510;2022-09-20T12:08:42;0.52;;;0.30;;
39776;SDS011;25453;48.162;14.510;2022-09-20T12:11:30;0.30;;;0.22;;
39776;SDS011;25453;48.162;14.510;2022-09-20T12:14:17;0.47;;;0.30;;
39776;SDS011;25453;48.162;14.510;2022-09-20T12:16:58;1.40;;;0.50;;
39776;SDS011;25453;48.162;14.510;2022-09-20T12:19:36;1.00;;;0.40;;
39776;SDS011;25453;48.162;14.510;2022-09-20T12:24:47;0.20;;;0.20;;
39776;SDS011;25453;48.162;14.510;2022-09-20T12:28:11;0.30;;;0.30;;
39776;SDS011;25453;48.162;14.510;2022-09-20T12:30:41;0.57;;;0.30;;
39776;SDS011;25453;48.162;14.510;2022-09-20T12:33:19;0.30;;;0.30;;
39776;SDS011;25453;48.162;14.510;2022-09-20T12:35:51;0.60;;;0.40;;
39776;SDS011;25453;48.162;14.510;2022-09-20T12:38:30;1.00;;;0.35;;
39776;SDS011;25453;48.162;14.510;2022-09-20T12:41:01;3.00;;;0.60;;
39776;SDS011;25453;48.162;14.510;2022-09-20T12:46:40;0.50;;;0.47;;
39776;SDS011;25453;48.162;14.510;2022-09-20T12:49:33;0.65;;;0.40;;
39776;SDS011;25453;48.162;14.510;2022-09-20T12:58:37;1.95;;;0.45;;
39776;SDS011;25453;48.162;14.510;2022-09-20T13:03:53;0.43;;;0.40;;
39776;SDS011;25453;48.162;14.510;2022-09-20T13:06:47;0.40;;;0.40;;
39776;SDS011;25453;48.162;14.510;2022-09-20T13:09:14;2.78;;;0.50;;
39776;SDS011;25453;48.162;14.510;2022-09-20T13:11:54;1.02;;;0.43;;
39776;SDS011;25453;48.162;14.510;2022-09-20T13:14:40;0.70;;;0.30;;
39776;SDS011;25453;48.162;14.510;2022-09-20T13:19:46;0.77;;;0.40;;
39776;SDS011;25453;48.162;14.510;2022-09-20T13:22:21;0.88;;;0.50;;
39776;SDS011;25453;48.162;14.510;2022-09-20T13:25:10;0.60;;;0.35;;
39776;SDS011;25453;48.162;14.510;2022-09-20T13:27:58;0.98;;;0.40;;
39776;SDS011;25453;48.162;14.510;2022-09-20T13:30:35;0.95;;;0.40;;
39776;SDS011;25453;48.162;14.510;2022-09-20T13:35:58;0.50;;;0.40;;
39776;SDS011;25453;48.162;14.510;2022-09-20T13:38:27;0.75;;;0.40;;
39776;SDS011;25453;48.162;14.510;2022-09-20T13:41:04;0.90;;;0.40;;
39776;SDS011;25453;48.162;14.510;2022-09-20T13:43:36;0.47;;;0.38;;
39776;SDS011;25453;48.162;14.510;2022-09-20T13:51:38;0.50;;;0.50;;
39776;SDS011;25453;48.162;14.510;2022-09-20T13:54:20;0.68;;;0.20;;
39776;SDS011;25453;48.162;14.510;2022-09-20T13:56:50;0.40;;;0.40;;
39776;SDS011;25453;48.162;14.510;2022-09-20T13:59:29;0.30;;;0.20;;
39776;SDS011;25453;48.162;14.510;2022-09-20T14:04:58;0.30;;;0.30;;
39776;SDS011;25453;48.162;14.510;2022-09-20T14:07:34;0.38;;;0.28;;
39776;SDS011;25453;48.162;14.510;2022-09-20T14:10:03;0.75;;;0.30;;
39776;SDS011;25453;48.162;14.510;2022-09-20T14:12:37;0.60;;;0.30;;
39776;SDS011;25453;48.162;14.510;2022-09-20T14:15:06;0.60;;;0.38;;
39776;SDS011;25453;48.162;14.510;2022-09-20T14:17:57;0.57;;;0.40;;
39776;SDS011;25453;48.162;14.510;2022-09-20T14:20:26;1.38;;;0.57;;
39776;SDS011;25453;48.162;14.510;2022-09-20T14:23:00;2.53;;;0.70;;
39776;SDS011;25453;48.162;14.510;2022-09-20T14:25:34;1.05;;;0.52;;
39776;SDS011;25453;48.162;14.510;2022-09-20T14:28:03;0.73;;;0.55;;
39776;SDS011;25453;48.162;14.510;2022-09-20T14:30:39;1.67;;;0.70;;
39776;SDS011;25453;48.162;14.510;2022-09-20T14:33:18;1.60;;;0.70;;
39776;SDS011;25453;48.162;14.510;2022-09-20T14:35:54;2.47;;;0.82;;
39776;SDS011;25453;48.162;14.510;2022-09-20T14:38:27;2.72;;;0.88;;
39776;SDS011;25453;48.162;14.510;2022-09-20T14:41:02;2.03;;;0.80;;
39776;SDS011;25453;48.162;14.510;2022-09-20T14:43:30;1.08;;;0.50;;
39776;SDS011;25453;48.162;14.510;2022-09-20T14:46:04;2.38;;;0.73;;
39776;SDS011;25453;48.162;14.510;2022-09-20T14:49:17;0.88;;;0.50;;
39776;SDS011;25453;48.162;14.510;2022-09-20T14:51:46;1.13;;;0.52;;
39776;SDS011;25453;48.162;14.510;2022-09-20T14:56:53;1.25;;;0.60;;
39776;SDS011;25453;48.162;14.510;2022-09-20T14:59:36;3.10;;;0.80;;
39776;SDS011;25453;48.162;14.510;2022-09-20T15:02:14;2.33;;;1.08;;
39776;SDS011;25453;48.162;14.510;2022-09-20T15:04:50;2.05;;;0.80;;
39776;SDS011;25453;48.162;14.510;2022-09-20T15:07:26;2.53;;;0.90;;
39776;SDS011;25453;48.162;14.510;2022-09-20T15:09:54;2.67;;;1.30;;
39776;SDS011;25453;48.162;14.510;2022-09-20T15:12:28;2.50;;;1.42;;
39776;SDS011;25453;48.162;14.510;2022-09-20T15:14:56;2.05;;;1.13;;
39776;SDS011;25453;48.162;14.510;2022-09-20T15:17:43;2.20;;;1.20;;
39776;SDS011;25453;48.162;14.510;2022-09-20T15:20:19;2.20;;;1.10;;
39776;SDS011;25453;48.162;14.510;2022-09-20T15:22:53;1.67;;;1.00;;
39776;SDS011;25453;48.162;14.510;2022-09-20T15:25:23;4.70;;;1.00;;
39776;SDS011;25453;48.162;14.510;2022-09-20T15:27:57;1.85;;;1.10;;
39776;SDS011;25453;48.162;14.510;2022-09-20T15:30:25;0.93;;;0.77;;
39776;SDS011;25453;48.162;14.510;2022-09-20T15:32:59;1.63;;;0.65;;
39776;SDS011;25453;48.162;14.510;2022-09-20T15:35:34;1.60;;;0.73;;
39776;SDS011;25453;48.162;14.510;2022-09-20T15:38:02;1.52;;;0.60;;
39776;SDS011;25453;48.162;14.510;2022-09-20T15:40:40;0.98;;;0.60;;
39776;SDS011;25453;48.162;14.510;2022-09-20T15:43:10;1.00;;;0.60;;
39776;SDS011;25453;48.162;14.510;2022-09-20T15:45:59;0.85;;;0.50;;
39776;SDS011;25453;48.162;14.510;2022-09-20T15:48:48;1.15;;;0.60;;
39776;SDS011;25453;48.162;14.510;2022-09-20T15:51:16;1.90;;;0.70;;
39776;SDS011;25453;48.162;14.510;2022-09-20T15:53:54;1.90;;;0.83;;
39776;SDS011;25453;48.162;14.510;2022-09-20T15:56:24;1.10;;;0.40;;
39776;SDS011;25453;48.162;14.510;2022-09-20T15:59:03;0.75;;;0.50;;
39776;SDS011;25453;48.162;14.510;2022-09-20T16:01:39;1.77;;;0.50;;
39776;SDS011;25453;48.162;14.510;2022-09-20T16:04:15;0.85;;;0.50;;
39776;SDS011;25453;48.162;14.510;2022-09-20T16:06:52;1.13;;;0.50;;
39776;SDS011;25453;48.162;14.510;2022-09-20T16:09:21;1.45;;;0.63;;
39776;SDS011;25453;48.162;14.510;2022-09-20T16:11:56;1.30;;;0.43;;
39776;SDS011;25453;48.162;14.510;2022-09-20T16:14:26;0.65;;;0.50;;
39776;SDS011;25453;48.162;14.510;2022-09-20T16:16:59;1.23;;;0.32;;
39776;SDS011;25453;48.162;14.510;2022-09-20T16:19:33;1.25;;;0.38;;
39776;SDS011;25453;48.162;14.510;2022-09-20T16:22:08;0.70;;;0.30;;
39776;SDS011;25453;48.162;14.510;2022-09-20T16:24:36;0.30;;;0.30;;
39776;SDS011;25453;48.162;14.510;2022-09-20T16:27:05;1.15;;;0.47;;
39776;SDS011;25453;48.162;14.510;2022-09-20T16:29:40;1.73;;;0.40;;
39776;SDS011;25453;48.162;14.510;2022-09-20T16:32:08;1.02;;;0.40;;
39776;SDS011;25453;48.162;14.510;2022-09-20T16:34:41;0.50;;;0.30;;
39776;SDS011;25453;48.162;14.510;2022-09-20T16:37:18;2.03;;;0.57;;
39776;SDS011;25453;48.162;14.510;2022-09-20T16:39:48;0.95;;;0.60;;
39776;SDS011;25453;48.162;14.510;2022-09-20T16:42:21;0.65;;;0.43;;
39776;SDS011;25453;48.162;14.510;2022-09-20T16:44:57;0.55;;;0.50;;
39776;SDS011;25453;48.162;14.510;2022-09-20T16:47:24;2.10;;;0.77;;
39776;SDS011;25453;48.162;14.510;2022-09-20T16:49:58;1.17;;;0.70;;
39776;SDS011;25453;48.162;14.510;2022-09-20T16:57:48;1.57;;;1.00;;
39776;SDS011;25453;48.162;14.510;2022-09-20T17:00:22;2.28;;;0.90;;
39776;SDS011;25453;48.162;14.510;2022-09-20T17:02:51;2.28;;;1.00;;
39776;SDS011;25453;48.162;14.510;2022-09-20T17:05:24;1.40;;;0.68;;
39776;SDS011;25453;48.162;14.510;2022-09-20T17:07:52;2.78;;;1.20;;
39776;SDS011;25453;48.162;14.510;2022-09-20T17:10:28;2.45;;;1.10;;
39776;SDS011;25453;48.162;14.510;2022-09-20T17:12:56;2.55;;;1.05;;
39776;SDS011;25453;48.162;14.510;2022-09-20T17:15:38;1.40;;;0.77;;
39776;SDS011;25453;48.162;14.510;2022-09-20T17:18:12;2.10;;;0.63;;
39776;SDS011;25453;48.162;14.510;2022-09-20T17:20:41;1.98;;;0.90;;
39776;SDS011;25453;48.162;14.510;2022-09-20T17:23:15;1.00;;;0.65;;
39776;SDS011;25453;48.162;14.510;2022-09-20T17:25:43;1.60;;;0.70;;
39776;SDS011;25453;48.162;14.510;2022-09-20T17:28:19;2.60;;;0.80;;
39776;SDS011;25453;48.162;14.510;2022-09-20T17:30:50;1.48;;;0.95;;
39776;SDS011;25453;48.162;14.510;2022-09-20T17:33:24;1.17;;;0.73;;
39776;SDS011;25453;48.162;14.510;2022-09-20T17:35:54;2.65;;;1.25;;
39776;SDS011;25453;48.162;14.510;2022-09-20T17:38:33;3.00;;;1.30;;
39776;SDS011;25453;48.162;14.510;2022-09-20T17:43:42;2.47;;;1.20;;
39776;SDS011;25453;48.162;14.510;2022-09-20T17:46:13;2.92;;;1.25;;
39776;SDS011;25453;48.162;14.510;2022-09-20T17:48:49;3.47;;;1.52;;
39776;SDS011;25453;48.162;14.510;2022-09-20T17:51:27;2.50;;;1.10;;
39776;SDS011;25453;48.162;14.510;2022-09-20T17:53:58;1.65;;;1.02;;
39776;SDS011;25453;48.162;14.510;2022-09-20T17:56:35;1.20;;;0.93;;
39776;SDS011;25453;48.162;14.510;2022-09-20T17:59:09;2.40;;;0.85;;
39776;SDS011;25453;48.162;14.510;2022-09-20T18:01:38;2.70;;;1.15;;
39776;SDS011;25453;48.162;14.510;2022-09-20T18:04:12;1.58;;;0.90;;
39776;SDS011;25453;48.162;14.510;2022-09-20T18:06:48;1.92;;;0.88;;
39776;SDS011;25453;48.162;14.510;2022-09-20T18:09:24;1.98;;;1.02;;
39776;SDS011;25453;48.162;14.510;2022-09-20T18:11:53;2.38;;;1.30;;
39776;SDS011;25453;48.162;14.510;2022-09-20T18:14:31;2.45;;;1.08;;
39776;SDS011;25453;48.162;14.510;2022-09-20T18:17:14;1.40;;;1.00;;
39776;SDS011;25453;48.162;14.510;2022-09-20T18:19:48;3.72;;;0.95;;
39776;SDS011;25453;48.162;14.510;2022-09-20T18:22:24;2.17;;;1.10;;
39776;SDS011;25453;48.162;14.510;2022-09-20T18:25:02;2.10;;;0.80;;
39776;SDS011;25453;48.162;14.510;2022-09-20T18:27:30;1.27;;;0.80;;
39776;SDS011;25453;48.162;14.510;2022-09-20T18:30:06;2.03;;;0.98;;
39776;SDS011;25453;48.162;14.510;2022-09-20T18:32:34;2.28;;;0.98;;
39776;SDS011;25453;48.162;14.510;2022-09-20T18:35:01;1.42;;;0.80;;
39776;SDS011;25453;48.162;14.510;2022-09-20T18:37:36;1.25;;;0.70;;
39776;SDS011;25453;48.162;14.510;2022-09-20T18:40:03;0.52;;;0.43;;
39776;SDS011;25453;48.162;14.510;2022-09-20T18:42:31;2.30;;;0.70;;
39776;SDS011;25453;48.162;14.510;2022-09-20T18:45:06;1.40;;;0.60;;
39776;SDS011;25453;48.162;14.510;2022-09-20T18:47:40;0.73;;;0.50;;
39776;SDS011;25453;48.162;14.510;2022-09-20T18:50:10;0.50;;;0.45;;
39776;SDS011;25453;48.162;14.510;2022-09-20T18:55:13;0.73;;;0.50;;
39776;SDS011;25453;48.162;14.510;2022-09-20T18:57:48;1.70;;;0.70;;
39776;SDS011;25453;48.162;14.510;2022-09-20T19:00:26;1.25;;;0.70;;
39776;SDS011;25453;48.162;14.510;2022-09-20T19:03:04;1.50;;;1.00;;
39776;SDS011;25453;48.162;14.510;2022-09-20T19:05:53;1.95;;;1.02;;
39776;SDS011;25453;48.162;14.510;2022-09-20T19:11:42;2.00;;;1.00;;
39776;SDS011;25453;48.162;14.510;2022-09-20T19:14:19;2.13;;;1.02;;
39776;SDS011;25453;48.162;14.510;2022-09-20T19:19:36;1.73;;;0.95;;
39776;SDS011;25453;48.162;14.510;2022-09-20T19:22:24;1.10;;;0.80;;
39776;SDS011;25453;48.162;14.510;2022-09-20T19:27:49;1.35;;;0.93;;
39776;SDS011;25453;48.162;14.510;2022-09-20T19:30:17;2.20;;;0.70;;
39776;SDS011;25453;48.162;14.510;2022-09-20T19:32:51;1.25;;;0.93;;
39776;SDS011;25453;48.162;14.510;2022-09-20T19:35:23;1.50;;;0.80;;
39776;SDS011;25453;48.162;14.510;2022-09-20T19:41:12;1.67;;;1.10;;
39776;SDS011;25453;48.162;14.510;2022-09-20T19:44:27;2.00;;;0.90;;
39776;SDS011;25453;48.162;14.510;2022-09-20T19:47:25;3.00;;;1.13;;
39776;SDS011;25453;48.162;14.510;2022-09-20T19:50:02;2.37;;;0.90;;
39776;SDS011;25453;48.162;14.510;2022-09-20T19:52:51;2.20;;;1.10;;
39776;SDS011;25453;48.162;14.510;2022-09-20T19:55:22;1.35;;;0.90;;
39776;SDS011;25453;48.162;14.510;2022-09-20T19:57:56;2.40;;;0.93;;
39776;SDS011;25453;48.162;14.510;2022-09-20T20:00:25;2.42;;;0.80;;
39776;SDS011;25453;48.162;14.510;2022-09-20T20:02:58;4.53;;;1.15;;
39776;SDS011;25453;48.162;14.510;2022-09-20T20:05:28;1.88;;;1.15;;
39776;SDS011;25453;48.162;14.510;2022-09-20T20:22:22;2.33;;;1.15;;
39776;SDS011;25453;48.162;14.510;2022-09-20T20:25:04;1.05;;;0.70;;
39776;SDS011;25453;48.162;14.510;2022-09-20T20:27:51;1.65;;;0.90;;
39776;SDS011;25453;48.162;14.510;2022-09-20T20:30:18;1.35;;;0.82;;
39776;SDS011;25453;48.162;14.510;2022-09-20T20:32:45;2.60;;;0.95;;
39776;SDS011;25453;48.162;14.510;2022-09-20T20:35:33;1.75;;;1.00;;
39776;SDS011;25453;48.162;14.510;2022-09-20T20:38:02;4.55;;;1.50;;
39776;SDS011;25453;48.162;14.510;2022-09-20T20:40:44;4.68;;;1.83;;
39776;SDS011;25453;48.162;14.510;2022-09-20T20:43:18;5.03;;;1.80;;
39776;SDS011;25453;48.162;14.510;2022-09-20T20:45:54;3.30;;;1.60;;
39776;SDS011;25453;48.162;14.510;2022-09-20T20:48:29;6.00;;;2.13;;
39776;SDS011;25453;48.162;14.510;2022-09-20T20:51:07;3.85;;;2.00;;
39776;SDS011;25453;48.162;14.510;2022-09-20T20:53:41;3.53;;;1.73;;
39776;SDS011;25453;48.162;14.510;2022-09-20T20:56:20;3.72;;;1.83;;
39776;SDS011;25453;48.162;14.510;2022-09-20T20:59:01;3.70;;;1.60;;
39776;SDS011;25453;48.162;14.510;2022-09-20T21:01:34;3.17;;;1.67;;
39776;SDS011;25453;48.162;14.510;2022-09-20T21:04:10;3.72;;;1.98;;
39776;SDS011;25453;48.162;14.510;2022-09-20T21:06:39;3.88;;;1.92;;
39776;SDS011;25453;48.162;14.510;2022-09-20T21:09:14;3.85;;;2.17;;
39776;SDS011;25453;48.162;14.510;2022-09-20T21:11:44;6.93;;;2.33;;
39776;SDS011;25453;48.162;14.510;2022-09-20T21:14:20;5.93;;;2.45;;
39776;SDS011;25453;48.162;14.510;2022-09-20T21:17:05;4.97;;;2.22;;
39776;SDS011;25453;48.162;14.510;2022-09-20T21:19:39;5.13;;;2.38;;
39776;SDS011;25453;48.162;14.510;2022-09-20T21:22:13;6.55;;;2.90;;
39776;SDS011;25453;48.162;14.510;2022-09-20T21:24:48;5.87;;;3.00;;
39776;SDS011;25453;48.162;14.510;2022-09-20T21:27:22;7.75;;;3.33;;
39776;SDS011;25453;48.162;14.510;2022-09-20T21:30:02;7.28;;;4.00;;
39776;SDS011;25453;48.162;14.510;2022-09-20T21:32:30;7.82;;;3.28;;
39776;SDS011;25453;48.162;14.510;2022-09-20T21:35:05;6.70;;;3.40;;
39776;SDS011;25453;48.162;14.510;2022-09-20T21:37:32;5.50;;;2.92;;
39776;SDS011;25453;48.162;14.510;2022-09-20T21:40:06;6.77;;;3.20;;